sensor_id;sensor_type;location;lat;lon;timestamp;pressure;altitude;pressure_sealevel;temperature;humidity
67697;BME280;54486;51.442;6.778;2024-02-21T00:01:23;77722.69;;;-141.21;64.73
67697;BME280;54486;51.442;6.778;2024-02-21T00:03:51;77722.69;;;-141.21;65.11
67697;BME280;54486;51.442;6.778;2024-02-21T00:06:18;77718.69;;;-141.21;64.97
67697;BME280;54486;51.442;6.778;2024-02-21T00:08:45;77720.69;;;-141.21;64.66
67697;BME280;54486;51.442;6.778;2024-02-21T00:11:13;77710.69;;;-141.21;64.42
67697;BME280;54486;51.442;6.778;2024-02-21T00:13:41;77698.66;;;-141.21;64.57
67697;BME280;54486;51.442;6.778;2024-02-21T00:16:08;77702.66;;;-141.21;64.75
67697;BME280;54486;51.442;6.778;2024-02-21T00:18:35;77698.66;;;-141.21;64.76
67697;BME280;54486;51.442;6.778;2024-02-21T00:21:02;77694.66;;;-141.21;64.76
67697;BME280;54486;51.442;6.778;2024-02-21T00:23:30;77694.66;;;-141.21;64.47
67697;BME280;54486;51.442;6.778;2024-02-21T00:25:57;77702.66;;;-141.21;64.93
67697;BME280;54486;51.442;6.778;2024-02-21T00:28:25;77690.66;;;-141.21;64.73
67697;BME280;54486;51.442;6.778;2024-02-21T00:30:52;77674.66;;;-141.21;64.97
67697;BME280;54486;51.442;6.778;2024-02-21T00:33:20;77682.66;;;-141.21;64.51
67697;BME280;54486;51.442;6.778;2024-02-21T00:35:47;77662.63;;;-141.21;64.63
67697;BME280;54486;51.442;6.778;2024-02-21T00:38:14;77688.66;;;-141.21;64.25
67697;BME280;54486;51.442;6.778;2024-02-21T00:40:41;77686.66;;;-141.21;64.67
67697;BME280;54486;51.442;6.778;2024-02-21T00:43:09;77666.63;;;-141.21;64.39
67697;BME280;54486;51.442;6.778;2024-02-21T00:45:37;77662.63;;;-141.21;64.22
67697;BME280;54486;51.442;6.778;2024-02-21T00:48:04;77662.63;;;-141.21;64.70
67697;BME280;54486;51.442;6.778;2024-02-21T00:50:31;77670.63;;;-141.21;64.38
67697;BME280;54486;51.442;6.778;2024-02-21T00:52:58;77684.66;;;-141.21;64.70
67697;BME280;54486;51.442;6.778;2024-02-21T00:55:25;77670.63;;;-141.21;64.61
67697;BME280;54486;51.442;6.778;2024-02-21T00:57:52;77662.63;;;-141.21;64.55
67697;BME280;54486;51.442;6.778;2024-02-21T01:00:20;77654.63;;;-141.21;64.49
67697;BME280;54486;51.442;6.778;2024-02-21T01:02:47;77670.63;;;-141.21;64.59
67697;BME280;54486;51.442;6.778;2024-02-21T01:05:19;77662.63;;;-141.21;64.42
67697;BME280;54486;51.442;6.778;2024-02-21T01:07:46;77642.63;;;-141.21;64.51
67697;BME280;54486;51.442;6.778;2024-02-21T01:10:14;77638.59;;;-141.21;64.26
67697;BME280;54486;51.442;6.778;2024-02-21T01:12:40;77648.63;;;-141.21;64.60
67697;BME280;54486;51.442;6.778;2024-02-21T01:15:08;77638.59;;;-141.21;64.61
67697;BME280;54486;51.442;6.778;2024-02-21T01:17:35;77632.59;;;-141.21;64.63
67697;BME280;54486;51.442;6.778;2024-02-21T01:20:03;77628.59;;;-141.21;64.48
67697;BME280;54486;51.442;6.778;2024-02-21T01:22:32;77632.59;;;-141.21;64.65
67697;BME280;54486;51.442;6.778;2024-02-21T01:25:00;77630.59;;;-141.21;64.00
67697;BME280;54486;51.442;6.778;2024-02-21T01:27:27;77644.63;;;-141.21;64.97
67697;BME280;54486;51.442;6.778;2024-02-21T01:29:54;77614.59;;;-141.21;64.41
67697;BME280;54486;51.442;6.778;2024-02-21T01:32:22;77618.59;;;-141.21;64.63
67697;BME280;54486;51.442;6.778;2024-02-21T01:34:51;77618.59;;;-141.21;64.76
67697;BME280;54486;51.442;6.778;2024-02-21T01:37:18;77610.59;;;-141.21;64.27
67697;BME280;54486;51.442;6.778;2024-02-21T01:39:45;77614.59;;;-141.21;64.29
67697;BME280;54486;51.442;6.778;2024-02-21T01:42:12;77614.59;;;-141.21;64.49
67697;BME280;54486;51.442;6.778;2024-02-21T01:44:40;77608.59;;;-141.21;64.35
67697;BME280;54486;51.442;6.778;2024-02-21T01:47:07;77604.56;;;-141.21;64.45
67697;BME280;54486;51.442;6.778;2024-02-21T01:49:34;77624.59;;;-141.21;64.77
67697;BME280;54486;51.442;6.778;2024-02-21T01:52:02;77616.59;;;-141.21;64.13
67697;BME280;54486;51.442;6.778;2024-02-21T01:54:31;77622.59;;;-141.21;63.74
67697;BME280;54486;51.442;6.778;2024-02-21T01:56:58;77610.59;;;-141.21;64.65
67697;BME280;54486;51.442;6.778;2024-02-21T01:59:26;77614.59;;;-141.21;64.04
67697;BME280;54486;51.442;6.778;2024-02-21T02:01:55;77634.59;;;-141.21;63.90
67697;BME280;54486;51.442;6.778;2024-02-21T02:04:24;77594.56;;;-141.21;64.45
67697;BME280;54486;51.442;6.778;2024-02-21T02:06:54;77596.56;;;-141.21;64.29
67697;BME280;54486;51.442;6.778;2024-02-21T02:09:21;77590.56;;;-141.21;64.74
67697;BME280;54486;51.442;6.778;2024-02-21T02:11:49;77586.56;;;-141.21;64.21
67697;BME280;54486;51.442;6.778;2024-02-21T02:14:16;77576.56;;;-141.21;64.31
67697;BME280;54486;51.442;6.778;2024-02-21T02:16:46;77582.56;;;-141.21;64.09
67697;BME280;54486;51.442;6.778;2024-02-21T02:19:14;77570.53;;;-141.21;64.17
67697;BME280;54486;51.442;6.778;2024-02-21T02:21:46;77572.53;;;-141.21;64.41
67697;BME280;54486;51.442;6.778;2024-02-21T02:24:21;77568.53;;;-141.21;64.32
67697;BME280;54486;51.442;6.778;2024-02-21T02:26:49;77556.53;;;-141.21;64.52
67697;BME280;54486;51.442;6.778;2024-02-21T02:29:16;77574.56;;;-141.21;63.58
67697;BME280;54486;51.442;6.778;2024-02-21T02:31:44;77560.53;;;-141.21;64.65
67697;BME280;54486;51.442;6.778;2024-02-21T02:34:11;77558.53;;;-141.21;64.13
67697;BME280;54486;51.442;6.778;2024-02-21T02:36:39;77546.53;;;-141.21;64.19
67697;BME280;54486;51.442;6.778;2024-02-21T02:39:06;77544.53;;;-141.21;64.39
67697;BME280;54486;51.442;6.778;2024-02-21T02:41:36;77552.53;;;-141.21;64.37
67697;BME280;54486;51.442;6.778;2024-02-21T02:44:03;77546.53;;;-141.21;64.53
67697;BME280;54486;51.442;6.778;2024-02-21T02:46:31;77540.53;;;-141.21;64.14
67697;BME280;54486;51.442;6.778;2024-02-21T02:48:58;77554.53;;;-141.21;64.33
67697;BME280;54486;51.442;6.778;2024-02-21T02:51:26;77558.53;;;-141.21;64.43
67697;BME280;54486;51.442;6.778;2024-02-21T02:53:53;77542.53;;;-141.21;64.29
67697;BME280;54486;51.442;6.778;2024-02-21T02:56:21;77538.53;;;-141.21;64.26
67697;BME280;54486;51.442;6.778;2024-02-21T02:58:48;77546.53;;;-141.21;64.11
67697;BME280;54486;51.442;6.778;2024-02-21T03:01:15;77550.53;;;-141.21;64.31
67697;BME280;54486;51.442;6.778;2024-02-21T03:03:43;77538.53;;;-141.21;64.69
67697;BME280;54486;51.442;6.778;2024-02-21T03:06:12;77542.53;;;-141.21;64.15
67697;BME280;54486;51.442;6.778;2024-02-21T03:08:39;77526.50;;;-141.21;64.57
67697;BME280;54486;51.442;6.778;2024-02-21T03:11:06;77544.53;;;-141.21;64.25
67697;BME280;54486;51.442;6.778;2024-02-21T03:13:34;77534.50;;;-141.21;64.16
67697;BME280;54486;51.442;6.778;2024-02-21T03:16:01;77534.50;;;-141.21;64.12
67697;BME280;54486;51.442;6.778;2024-02-21T03:18:29;77538.53;;;-141.21;64.26
67697;BME280;54486;51.442;6.778;2024-02-21T03:20:56;77534.50;;;-141.21;64.63
67697;BME280;54486;51.442;6.778;2024-02-21T03:23:24;77526.50;;;-141.21;64.26
67697;BME280;54486;51.442;6.778;2024-02-21T03:25:51;77520.50;;;-141.21;64.21
67697;BME280;54486;51.442;6.778;2024-02-21T03:28:19;77520.50;;;-141.21;64.43
67697;BME280;54486;51.442;6.778;2024-02-21T03:30:46;77518.50;;;-141.21;64.12
67697;BME280;54486;51.442;6.778;2024-02-21T03:33:13;77536.50;;;-141.21;64.53
67697;BME280;54486;51.442;6.778;2024-02-21T03:35:40;77528.50;;;-141.21;64.22
67697;BME280;54486;51.442;6.778;2024-02-21T03:38:07;77524.50;;;-141.21;64.39
67697;BME280;54486;51.442;6.778;2024-02-21T03:40:34;77514.50;;;-141.21;64.21
67697;BME280;54486;51.442;6.778;2024-02-21T03:43:02;77526.50;;;-141.21;64.28
67697;BME280;54486;51.442;6.778;2024-02-21T03:45:29;77526.50;;;-141.21;64.60
67697;BME280;54486;51.442;6.778;2024-02-21T03:47:57;77530.50;;;-141.21;64.48
67697;BME280;54486;51.442;6.778;2024-02-21T03:50:24;77522.50;;;-141.21;64.33
67697;BME280;54486;51.442;6.778;2024-02-21T03:52:53;77522.50;;;-141.21;63.98
67697;BME280;54486;51.442;6.778;2024-02-21T03:55:21;77542.53;;;-141.21;64.53
67697;BME280;54486;51.442;6.778;2024-02-21T03:57:49;77538.53;;;-141.21;64.38
67697;BME280;54486;51.442;6.778;2024-02-21T04:00:16;77522.50;;;-141.21;64.06
67697;BME280;54486;51.442;6.778;2024-02-21T04:02:44;77538.53;;;-141.21;64.09
67697;BME280;54486;51.442;6.778;2024-02-21T04:05:15;77530.50;;;-141.21;63.98
67697;BME280;54486;51.442;6.778;2024-02-21T04:07:43;77506.50;;;-141.21;64.41
67697;BME280;54486;51.442;6.778;2024-02-21T04:10:11;77514.50;;;-141.21;64.03
67697;BME280;54486;51.442;6.778;2024-02-21T04:12:38;77546.53;;;-141.21;63.97
67697;BME280;54486;51.442;6.778;2024-02-21T04:15:06;77518.50;;;-141.21;64.42
67697;BME280;54486;51.442;6.778;2024-02-21T04:17:34;77522.50;;;-141.21;64.51
67697;BME280;54486;51.442;6.778;2024-02-21T04:20:03;77510.50;;;-141.21;64.51
67697;BME280;54486;51.442;6.778;2024-02-21T04:22:35;77510.50;;;-141.21;64.08
67697;BME280;54486;51.442;6.778;2024-02-21T04:25:03;77498.47;;;-141.21;64.08
67697;BME280;54486;51.442;6.778;2024-02-21T04:27:30;77494.47;;;-141.21;64.17
67697;BME280;54486;51.442;6.778;2024-02-21T04:29:57;77514.50;;;-141.21;63.76
67697;BME280;54486;51.442;6.778;2024-02-21T04:32:25;77522.50;;;-141.21;63.88
67697;BME280;54486;51.442;6.778;2024-02-21T04:34:54;77506.50;;;-141.21;64.08
67697;BME280;54486;51.442;6.778;2024-02-21T04:37:22;77498.47;;;-141.21;63.80
67697;BME280;54486;51.442;6.778;2024-02-21T04:39:49;77510.50;;;-141.21;64.04
67697;BME280;54486;51.442;6.778;2024-02-21T04:42:17;77502.47;;;-141.21;64.21
67697;BME280;54486;51.442;6.778;2024-02-21T04:44:44;77500.47;;;-141.21;63.48
67697;BME280;54486;51.442;6.778;2024-02-21T04:47:12;77506.50;;;-141.21;63.59
67697;BME280;54486;51.442;6.778;2024-02-21T04:49:39;77506.50;;;-141.21;63.78
67697;BME280;54486;51.442;6.778;2024-02-21T04:52:07;77510.50;;;-141.21;64.01
67697;BME280;54486;51.442;6.778;2024-02-21T04:54:34;77510.50;;;-141.21;63.51
67697;BME280;54486;51.442;6.778;2024-02-21T04:57:03;77498.47;;;-141.21;63.72
67697;BME280;54486;51.442;6.778;2024-02-21T04:59:30;77494.47;;;-141.21;63.78
67697;BME280;54486;51.442;6.778;2024-02-21T05:01:57;77502.47;;;-141.21;63.08
67697;BME280;54486;51.442;6.778;2024-02-21T05:04:25;77518.50;;;-141.21;64.09
67697;BME280;54486;51.442;6.778;2024-02-21T05:06:52;77490.47;;;-141.21;63.61
67697;BME280;54486;51.442;6.778;2024-02-21T05:09:20;77498.47;;;-141.21;63.50
67697;BME280;54486;51.442;6.778;2024-02-21T05:11:48;77484.47;;;-141.21;63.86
67697;BME280;54486;51.442;6.778;2024-02-21T05:14:16;77482.47;;;-141.21;63.36
67697;BME280;54486;51.442;6.778;2024-02-21T05:16:43;77478.47;;;-141.21;63.60
67697;BME280;54486;51.442;6.778;2024-02-21T05:19:10;77466.44;;;-141.21;63.32
67697;BME280;54486;51.442;6.778;2024-02-21T05:21:37;77472.47;;;-141.21;63.44
67697;BME280;54486;51.442;6.778;2024-02-21T05:24:05;77482.47;;;-141.21;63.68
67697;BME280;54486;51.442;6.778;2024-02-21T05:26:33;77478.47;;;-141.21;63.59
67697;BME280;54486;51.442;6.778;2024-02-21T05:29:00;77478.47;;;-141.21;63.70
67697;BME280;54486;51.442;6.778;2024-02-21T05:31:54;77470.47;;;-141.21;63.48
67697;BME280;54486;51.442;6.778;2024-02-21T05:34:22;77458.44;;;-141.21;63.44
67697;BME280;54486;51.442;6.778;2024-02-21T05:36:51;77464.44;;;-141.21;63.44
67697;BME280;54486;51.442;6.778;2024-02-21T05:39:18;77478.47;;;-141.21;63.40
67697;BME280;54486;51.442;6.778;2024-02-21T05:41:46;77466.44;;;-141.21;63.68
67697;BME280;54486;51.442;6.778;2024-02-21T05:44:13;77458.44;;;-141.21;63.76
67697;BME280;54486;51.442;6.778;2024-02-21T05:46:41;77452.44;;;-141.21;63.55
67697;BME280;54486;51.442;6.778;2024-02-21T05:49:08;77462.44;;;-141.21;63.15
67697;BME280;54486;51.442;6.778;2024-02-21T05:51:36;77462.44;;;-141.21;63.45
67697;BME280;54486;51.442;6.778;2024-02-21T05:54:04;77470.47;;;-141.21;63.97
67697;BME280;54486;51.442;6.778;2024-02-21T05:56:31;77466.44;;;-141.21;63.53
67697;BME280;54486;51.442;6.778;2024-02-21T05:58:58;77454.44;;;-141.21;63.62
67697;BME280;54486;51.442;6.778;2024-02-21T06:01:25;77458.44;;;-141.21;63.90
67697;BME280;54486;51.442;6.778;2024-02-21T06:03:53;77460.44;;;-141.21;63.48
67697;BME280;54486;51.442;6.778;2024-02-21T06:06:20;77454.44;;;-141.21;63.59
67697;BME280;54486;51.442;6.778;2024-02-21T06:08:49;77438.44;;;-141.21;63.76
67697;BME280;54486;51.442;6.778;2024-02-21T06:11:16;77462.44;;;-141.21;63.44
67697;BME280;54486;51.442;6.778;2024-02-21T06:13:45;77442.44;;;-141.21;62.98
67697;BME280;54486;51.442;6.778;2024-02-21T06:16:12;77456.44;;;-141.21;63.06
67697;BME280;54486;51.442;6.778;2024-02-21T06:18:39;77428.41;;;-141.21;63.94
67697;BME280;54486;51.442;6.778;2024-02-21T06:21:06;77452.44;;;-141.21;63.94
67697;BME280;54486;51.442;6.778;2024-02-21T06:23:36;77454.44;;;-141.21;63.61
67697;BME280;54486;51.442;6.778;2024-02-21T06:26:03;77458.44;;;-141.21;63.63
67697;BME280;54486;51.442;6.778;2024-02-21T06:28:30;77454.44;;;-141.21;63.48
67697;BME280;54486;51.442;6.778;2024-02-21T06:30:58;77436.44;;;-141.21;63.64
67697;BME280;54486;51.442;6.778;2024-02-21T06:33:25;77426.41;;;-141.21;63.56
67697;BME280;54486;51.442;6.778;2024-02-21T06:35:52;77438.44;;;-141.21;62.97
67697;BME280;54486;51.442;6.778;2024-02-21T06:38:19;77438.44;;;-141.21;63.28
67697;BME280;54486;51.442;6.778;2024-02-21T06:40:47;77426.41;;;-141.21;63.70
67697;BME280;54486;51.442;6.778;2024-02-21T06:43:18;77416.41;;;-141.21;63.15
67697;BME280;54486;51.442;6.778;2024-02-21T06:45:46;77424.41;;;-141.21;62.96
67697;BME280;54486;51.442;6.778;2024-02-21T06:48:19;77428.41;;;-141.21;63.06
67697;BME280;54486;51.442;6.778;2024-02-21T06:50:47;77446.44;;;-141.21;63.48
67697;BME280;54486;51.442;6.778;2024-02-21T06:53:14;77442.44;;;-141.21;63.52
67697;BME280;54486;51.442;6.778;2024-02-21T06:55:41;77456.44;;;-141.21;63.10
67697;BME280;54486;51.442;6.778;2024-02-21T06:58:09;77438.44;;;-141.21;63.68
67697;BME280;54486;51.442;6.778;2024-02-21T07:00:39;77426.41;;;-141.21;63.81
67697;BME280;54486;51.442;6.778;2024-02-21T07:03:07;77426.41;;;-141.21;63.59
67697;BME280;54486;51.442;6.778;2024-02-21T07:05:34;77430.41;;;-141.21;63.10
67697;BME280;54486;51.442;6.778;2024-02-21T07:08:03;77434.44;;;-141.21;63.63
67697;BME280;54486;51.442;6.778;2024-02-21T07:10:31;77410.41;;;-141.21;63.54
67697;BME280;54486;51.442;6.778;2024-02-21T07:12:58;77430.41;;;-141.21;63.02
67697;BME280;54486;51.442;6.778;2024-02-21T07:15:25;77426.41;;;-141.21;63.12
67697;BME280;54486;51.442;6.778;2024-02-21T07:17:54;77438.44;;;-141.21;62.58
67697;BME280;54486;51.442;6.778;2024-02-21T07:20:21;77418.41;;;-141.21;62.97
67697;BME280;54486;51.442;6.778;2024-02-21T07:22:48;77446.44;;;-141.21;62.52
67697;BME280;54486;51.442;6.778;2024-02-21T07:25:15;77434.44;;;-141.21;63.62
67697;BME280;54486;51.442;6.778;2024-02-21T07:27:44;77422.41;;;-141.21;63.14
67697;BME280;54486;51.442;6.778;2024-02-21T07:30:14;77436.44;;;-141.21;62.57
67697;BME280;54486;51.442;6.778;2024-02-21T07:32:43;77426.41;;;-141.21;62.96
67697;BME280;54486;51.442;6.778;2024-02-21T07:35:11;77426.41;;;-141.21;62.87
67697;BME280;54486;51.442;6.778;2024-02-21T07:37:39;77408.41;;;-141.21;63.21
67697;BME280;54486;51.442;6.778;2024-02-21T07:40:13;77418.41;;;-141.21;62.60
67697;BME280;54486;51.442;6.778;2024-02-21T07:42:41;77414.41;;;-141.21;63.20
67697;BME280;54486;51.442;6.778;2024-02-21T07:45:11;77406.41;;;-141.21;62.92
67697;BME280;54486;51.442;6.778;2024-02-21T07:47:38;77390.38;;;-141.21;62.96
67697;BME280;54486;51.442;6.778;2024-02-21T07:50:06;77378.38;;;-141.21;62.54
67697;BME280;54486;51.442;6.778;2024-02-21T07:52:34;77406.41;;;-141.21;62.66
67697;BME280;54486;51.442;6.778;2024-02-21T07:55:01;77396.38;;;-141.21;62.76
67697;BME280;54486;51.442;6.778;2024-02-21T07:57:30;77394.38;;;-141.21;62.14
67697;BME280;54486;51.442;6.778;2024-02-21T07:59:57;77410.41;;;-141.21;63.36
67697;BME280;54486;51.442;6.778;2024-02-21T08:02:24;77422.41;;;-141.21;62.78
67697;BME280;54486;51.442;6.778;2024-02-21T08:04:51;77398.38;;;-141.21;62.58
67697;BME280;54486;51.442;6.778;2024-02-21T08:07:18;77388.38;;;-141.21;62.20
67697;BME280;54486;51.442;6.778;2024-02-21T08:09:45;77412.41;;;-141.21;62.50
67697;BME280;54486;51.442;6.778;2024-02-21T08:12:13;77394.38;;;-141.21;62.18
67697;BME280;54486;51.442;6.778;2024-02-21T08:14:40;77362.34;;;-141.21;62.32
67697;BME280;54486;51.442;6.778;2024-02-21T08:17:09;77360.34;;;-141.21;62.21
67697;BME280;54486;51.442;6.778;2024-02-21T08:19:36;77350.34;;;-141.21;62.32
67697;BME280;54486;51.442;6.778;2024-02-21T08:22:04;77334.34;;;-141.21;62.37
67697;BME280;54486;51.442;6.778;2024-02-21T08:24:32;77356.34;;;-141.21;62.68
67697;BME280;54486;51.442;6.778;2024-02-21T08:26:58;77390.38;;;-141.21;62.07
67697;BME280;54486;51.442;6.778;2024-02-21T08:29:25;77354.34;;;-141.21;63.26
67697;BME280;54486;51.442;6.778;2024-02-21T08:31:53;77362.34;;;-141.21;63.24
67697;BME280;54486;51.442;6.778;2024-02-21T08:34:21;77362.34;;;-141.21;62.85
67697;BME280;54486;51.442;6.778;2024-02-21T08:36:48;77354.34;;;-141.21;62.34
67697;BME280;54486;51.442;6.778;2024-02-21T08:39:15;77354.34;;;-141.21;63.28
67697;BME280;54486;51.442;6.778;2024-02-21T08:41:44;77366.38;;;-141.21;62.61
67697;BME280;54486;51.442;6.778;2024-02-21T08:44:24;77370.38;;;-141.21;62.77
67697;BME280;54486;51.442;6.778;2024-02-21T08:46:54;77386.38;;;-141.21;62.68
67697;BME280;54486;51.442;6.778;2024-02-21T08:49:22;77366.38;;;-141.21;63.45
67697;BME280;54486;51.442;6.778;2024-02-21T08:51:50;77408.41;;;-141.21;62.55
67697;BME280;54486;51.442;6.778;2024-02-21T08:54:17;77406.41;;;-141.21;62.55
67697;BME280;54486;51.442;6.778;2024-02-21T08:56:45;77398.38;;;-141.21;62.26
67697;BME280;54486;51.442;6.778;2024-02-21T08:59:13;77422.41;;;-141.21;62.12
67697;BME280;54486;51.442;6.778;2024-02-21T09:01:42;77374.38;;;-141.21;62.42
67697;BME280;54486;51.442;6.778;2024-02-21T09:04:11;77346.34;;;-141.21;62.56
67697;BME280;54486;51.442;6.778;2024-02-21T09:06:38;77346.34;;;-141.21;62.30
67697;BME280;54486;51.442;6.778;2024-02-21T09:09:09;77358.34;;;-141.21;61.56
67697;BME280;54486;51.442;6.778;2024-02-21T09:11:37;77350.34;;;-141.21;61.22
67697;BME280;54486;51.442;6.778;2024-02-21T09:14:05;77324.31;;;-141.21;61.92
67697;BME280;54486;51.442;6.778;2024-02-21T09:16:32;77322.31;;;-141.21;61.99
67697;BME280;54486;51.442;6.778;2024-02-21T09:19:00;77340.34;;;-141.21;61.21
67697;BME280;54486;51.442;6.778;2024-02-21T09:21:28;77346.34;;;-141.21;60.80
67697;BME280;54486;51.442;6.778;2024-02-21T09:23:55;77324.31;;;-141.21;61.22
67697;BME280;54486;51.442;6.778;2024-02-21T09:26:26;77346.34;;;-141.21;60.72
67697;BME280;54486;51.442;6.778;2024-02-21T09:28:53;77346.34;;;-141.21;61.68
67697;BME280;54486;51.442;6.778;2024-02-21T09:31:21;77338.34;;;-141.21;61.62
67697;BME280;54486;51.442;6.778;2024-02-21T09:33:49;77318.31;;;-141.21;61.52
67697;BME280;54486;51.442;6.778;2024-02-21T09:36:16;77314.31;;;-141.21;60.83
67697;BME280;54486;51.442;6.778;2024-02-21T09:38:43;77318.31;;;-141.21;60.22
67697;BME280;54486;51.442;6.778;2024-02-21T09:41:18;77294.31;;;-141.21;60.56
67697;BME280;54486;51.442;6.778;2024-02-21T09:43:51;77306.31;;;-141.21;60.78
67697;BME280;54486;51.442;6.778;2024-02-21T09:46:39;77326.34;;;-141.21;60.77
67697;BME280;54486;51.442;6.778;2024-02-21T09:49:19;77292.31;;;-141.21;60.72
67697;BME280;54486;51.442;6.778;2024-02-21T09:51:53;77298.31;;;-141.21;60.34
67697;BME280;54486;51.442;6.778;2024-02-21T09:54:22;77306.31;;;-141.21;60.04
67697;BME280;54486;51.442;6.778;2024-02-21T09:56:49;77286.28;;;-141.21;60.38
67697;BME280;54486;51.442;6.778;2024-02-21T09:59:17;77296.31;;;-141.21;60.04
67697;BME280;54486;51.442;6.778;2024-02-21T10:01:45;77288.28;;;-141.21;60.19
67697;BME280;54486;51.442;6.778;2024-02-21T10:04:15;77298.31;;;-141.21;60.04
67697;BME280;54486;51.442;6.778;2024-02-21T10:06:43;77310.31;;;-141.21;60.47
67697;BME280;54486;51.442;6.778;2024-02-21T10:09:24;77298.31;;;-141.21;59.72
67697;BME280;54486;51.442;6.778;2024-02-21T10:12:07;77290.28;;;-141.21;60.64
67697;BME280;54486;51.442;6.778;2024-02-21T10:14:35;77294.31;;;-141.21;60.32
67697;BME280;54486;51.442;6.778;2024-02-21T10:17:03;77262.28;;;-141.21;60.00
67697;BME280;54486;51.442;6.778;2024-02-21T10:19:38;77278.28;;;-141.21;59.68
67697;BME280;54486;51.442;6.778;2024-02-21T10:22:09;77274.28;;;-141.21;59.90
67697;BME280;54486;51.442;6.778;2024-02-21T10:24:37;77260.28;;;-141.21;59.96
67697;BME280;54486;51.442;6.778;2024-02-21T10:27:11;77252.25;;;-141.21;60.11
67697;BME280;54486;51.442;6.778;2024-02-21T10:29:41;77254.28;;;-141.21;59.99
67697;BME280;54486;51.442;6.778;2024-02-21T10:32:12;77262.28;;;-141.21;59.32
67697;BME280;54486;51.442;6.778;2024-02-21T10:34:41;77242.25;;;-141.21;59.79
67697;BME280;54486;51.442;6.778;2024-02-21T10:37:10;77246.25;;;-141.21;59.30
67697;BME280;54486;51.442;6.778;2024-02-21T10:39:39;77222.25;;;-141.21;59.96
67697;BME280;54486;51.442;6.778;2024-02-21T10:42:11;77214.25;;;-141.21;60.31
67697;BME280;54486;51.442;6.778;2024-02-21T10:44:40;77198.22;;;-141.21;60.02
67697;BME280;54486;51.442;6.778;2024-02-21T10:47:10;77224.25;;;-141.21;59.36
67697;BME280;54486;51.442;6.778;2024-02-21T10:49:41;77226.25;;;-141.21;59.40
67697;BME280;54486;51.442;6.778;2024-02-21T10:55:04;77194.22;;;-141.21;59.65
67697;BME280;54486;51.442;6.778;2024-02-21T10:57:37;77180.22;;;-141.21;59.43
67697;BME280;54486;51.442;6.778;2024-02-21T11:00:06;77178.22;;;-141.21;58.84
67697;BME280;54486;51.442;6.778;2024-02-21T11:02:39;77176.19;;;-141.21;59.26
67697;BME280;54486;51.442;6.778;2024-02-21T11:05:07;77154.19;;;-141.21;59.48
67697;BME280;54486;51.442;6.778;2024-02-21T11:07:37;77174.19;;;-141.21;58.07
67697;BME280;54486;51.442;6.778;2024-02-21T11:10:05;77166.19;;;-141.21;59.02
67697;BME280;54486;51.442;6.778;2024-02-21T11:12:34;77150.19;;;-141.21;59.87
67697;BME280;54486;51.442;6.778;2024-02-21T11:15:06;77128.16;;;-141.21;58.98
67697;BME280;54486;51.442;6.778;2024-02-21T11:17:35;77118.16;;;-141.21;59.31
67697;BME280;54486;51.442;6.778;2024-02-21T11:20:16;77126.16;;;-141.21;58.47
67697;BME280;54486;51.442;6.778;2024-02-21T11:22:44;77112.16;;;-141.21;58.82
67697;BME280;54486;51.442;6.778;2024-02-21T11:25:11;77086.13;;;-141.21;59.18
67697;BME280;54486;51.442;6.778;2024-02-21T11:27:46;77092.13;;;-141.21;58.96
67697;BME280;54486;51.442;6.778;2024-02-21T11:30:13;77082.13;;;-141.21;59.10
67697;BME280;54486;51.442;6.778;2024-02-21T11:32:42;77070.13;;;-141.21;59.18
67697;BME280;54486;51.442;6.778;2024-02-21T11:35:19;77070.13;;;-141.21;59.21
67697;BME280;54486;51.442;6.778;2024-02-21T11:37:47;77054.09;;;-141.21;59.04
67697;BME280;54486;51.442;6.778;2024-02-21T11:40:14;77076.13;;;-141.21;58.04
67697;BME280;54486;51.442;6.778;2024-02-21T11:42:41;77054.09;;;-141.21;58.32
67697;BME280;54486;51.442;6.778;2024-02-21T11:45:09;77034.09;;;-141.21;58.45
67697;BME280;54486;51.442;6.778;2024-02-21T11:47:36;77038.09;;;-141.21;57.67
67697;BME280;54486;51.442;6.778;2024-02-21T11:50:11;77018.09;;;-141.21;58.98
67697;BME280;54486;51.442;6.778;2024-02-21T11:52:42;77026.09;;;-141.21;58.16
67697;BME280;54486;51.442;6.778;2024-02-21T11:55:10;77016.09;;;-141.21;59.64
67697;BME280;54486;51.442;6.778;2024-02-21T11:57:37;77016.09;;;-141.21;58.22
67697;BME280;54486;51.442;6.778;2024-02-21T12:00:18;76990.06;;;-141.21;58.29
67697;BME280;54486;51.442;6.778;2024-02-21T12:02:49;76960.03;;;-141.21;58.98
67697;BME280;54486;51.442;6.778;2024-02-21T12:05:19;76980.06;;;-141.21;58.15
67697;BME280;54486;51.442;6.778;2024-02-21T12:07:46;76946.03;;;-141.21;58.60
67697;BME280;54486;51.442;6.778;2024-02-21T12:10:14;76958.03;;;-141.21;58.91
67697;BME280;54486;51.442;6.778;2024-02-21T12:12:41;76976.03;;;-141.21;57.78
67697;BME280;54486;51.442;6.778;2024-02-21T12:15:09;76970.03;;;-141.21;57.97
67697;BME280;54486;51.442;6.778;2024-02-21T12:17:37;76954.03;;;-141.21;57.40
67697;BME280;54486;51.442;6.778;2024-02-21T12:20:07;76970.03;;;-141.21;58.14
67697;BME280;54486;51.442;6.778;2024-02-21T12:22:43;76950.03;;;-141.21;58.36
67697;BME280;54486;51.442;6.778;2024-02-21T12:25:21;76962.03;;;-141.21;58.45
67697;BME280;54486;51.442;6.778;2024-02-21T12:27:53;76950.03;;;-141.21;57.18
67697;BME280;54486;51.442;6.778;2024-02-21T12:30:23;76920.00;;;-141.21;57.86
67697;BME280;54486;51.442;6.778;2024-02-21T12:32:50;76942.03;;;-141.21;57.56
67697;BME280;54486;51.442;6.778;2024-02-21T12:35:18;76946.03;;;-141.21;57.18
67697;BME280;54486;51.442;6.778;2024-02-21T12:37:46;76934.03;;;-141.21;56.96
67697;BME280;54486;51.442;6.778;2024-02-21T12:40:13;76934.03;;;-141.21;56.93
67697;BME280;54486;51.442;6.778;2024-02-21T12:42:42;76932.00;;;-141.21;56.85
67697;BME280;54486;51.442;6.778;2024-02-21T12:45:09;76918.00;;;-141.21;57.49
67697;BME280;54486;51.442;6.778;2024-02-21T12:47:37;76918.00;;;-141.21;56.52
67697;BME280;54486;51.442;6.778;2024-02-21T12:50:04;76894.00;;;-141.21;57.83